Time;durP1;ratioP1;P1;durP2;ratioP2;P2;SDS_P1;SDS_P2;PMS_P1;PMS_P2;Temp;Humidity;BMP_temperature;BMP_pressure;BME280_temperature;BME280_humidity;BME280_pressure;Samples;Min_cycle;Max_cycle;Signal;HPM_P1;HPM_P2
2021/08/19 00:00:19;;;;;;;3.92;3.63;;;;;;;18.24;58.26;100564.41;689730;28;11521;-67
2021/08/19 00:00:42;;;;;;;3.85;3.60;;;;;;;18.24;58.13;100558.94;689421;28;23327;-65
2021/08/19 00:01:04;;;;;;;4.05;3.75;;;;;;;18.23;58.17;100558.09;689623;28;25869;-67
2021/08/19 00:01:25;;;;;;;3.78;3.47;;;;;;;18.22;58.04;100556.44;687832;28;59998;-66
2021/08/19 00:01:47;;;;;;;3.55;3.35;;;;;;;18.24;58.00;100559.75;690004;28;16866;-66
2021/08/19 00:02:09;;;;;;;3.88;3.50;;;;;;;18.24;57.81;100553.47;688434;28;46370;-67
2021/08/19 00:02:30;;;;;;;4.13;3.70;;;;;;;18.22;58.02;100555.59;688561;28;44860;-65
2021/08/19 00:02:51;;;;;;;3.95;3.50;;;;;;;18.24;57.83;100548.81;689048;28;23691;-67
2021/08/19 00:03:14;;;;;;;3.70;3.40;;;;;;;18.26;57.87;100554.91;688448;28;16957;-67
2021/08/19 00:03:35;;;;;;;3.97;3.70;;;;;;;18.26;58.08;100554.06;689149;28;45356;-68
2021/08/19 00:03:56;;;;;;;4.28;3.90;;;;;;;18.26;58.08;100554.06;689705;28;23472;-67
2021/08/19 00:04:17;;;;;;;3.95;3.65;;;;;;;18.25;58.25;100558.69;689846;28;22394;-66
2021/08/19 00:04:39;;;;;;;3.85;3.60;;;;;;;18.27;58.17;100563.94;688545;28;23479;-67
2021/08/19 00:05:00;;;;;;;3.90;3.70;;;;;;;18.26;58.16;100554.06;688559;28;46369;-68
2021/08/19 00:05:21;;;;;;;4.05;3.75;;;;;;;18.26;58.10;100565.84;689279;28;22372;-66
2021/08/19 00:05:42;;;;;;;4.15;3.85;;;;;;;18.26;58.23;100563.09;689411;28;23475;-67
2021/08/19 00:06:04;;;;;;;3.83;3.60;;;;;;;18.25;58.09;100566.91;689256;28;22422;-66
2021/08/19 00:06:25;;;;;;;4.10;3.80;;;;;;;18.26;58.08;100552.16;688091;28;45348;-65
2021/08/19 00:06:46;;;;;;;4.20;3.90;;;;;;;18.27;58.27;100561.19;689758;28;19368;-66
2021/08/19 00:07:07;;;;;;;3.97;3.72;;;;;;;18.26;58.14;100556.78;689481;28;22407;-66
2021/08/19 00:07:29;;;;;;;3.92;3.63;;;;;;;18.25;58.23;100564.16;689751;28;21524;-67
2021/08/19 00:07:50;;;;;;;4.05;3.78;;;;;;;18.24;58.30;100559.75;687477;28;40513;-66
2021/08/19 00:08:11;;;;;;;4.43;3.78;;;;;;;18.24;58.39;100562.47;689381;28;18956;-66
2021/08/19 00:08:33;;;;;;;4.45;3.75;;;;;;;18.23;58.31;100558.09;689241;28;20214;-67
2021/08/19 00:08:55;;;;;;;3.70;3.42;;;;;;;18.25;58.28;100572.38;688744;28;35490;-66
2021/08/19 00:09:16;;;;;;;3.90;3.60;;;;;;;18.23;58.38;100569.03;689088;28;34081;-66
2021/08/19 00:09:38;;;;;;;4.13;3.80;;;;;;;18.24;58.50;100557.03;688941;28;39480;-65
2021/08/19 00:10:00;;;;;;;4.30;4.00;;;;;;;18.23;58.59;100558.09;688580;28;46307;-67
2021/08/19 00:10:21;;;;;;;4.10;3.70;;;;;;;18.23;58.46;100558.09;690172;28;1181;-66
2021/08/19 00:10:43;;;;;;;4.10;3.80;;;;;;;18.23;58.49;100560.84;689806;28;22366;-66
2021/08/19 00:11:05;;;;;;;4.80;3.83;;;;;;;18.24;58.46;100558.94;688535;28;46324;-66
2021/08/19 00:11:26;;;;;;;4.35;3.65;;;;;;;18.23;58.44;100558.09;687829;28;69268;-66
2021/08/19 00:11:48;;;;;;;3.80;3.50;;;;;;;18.24;58.26;100559.75;688923;28;21573;-67
2021/08/19 00:12:09;;;;;;;3.78;3.58;;;;;;;18.24;58.43;100565.22;689088;28;23570;-67
2021/08/19 00:12:31;;;;;;;4.00;3.70;;;;;;;18.24;58.47;100567.94;689552;28;16389;-66
2021/08/19 00:12:52;;;;;;;3.83;3.63;;;;;;;18.25;58.41;100561.44;688979;28;41680;-66
2021/08/19 00:13:13;;;;;;;4.35;4.00;;;;;;;18.25;58.41;100564.16;689536;28;16778;-65
2021/08/19 00:13:35;;;;;;;4.53;4.15;;;;;;;18.26;58.32;100567.72;689479;28;22382;-66
2021/08/19 00:13:56;;;;;;;4.70;3.90;;;;;;;18.25;58.57;100566.06;688826;28;46337;-66
2021/08/19 00:14:17;;;;;;;4.50;3.85;;;;;;;18.25;58.53;100558.69;689764;28;22381;-65
2021/08/19 00:14:40;;;;;;;4.05;3.75;;;;;;;18.25;58.54;100566.06;689596;28;23461;-67
2021/08/19 00:15:01;;;;;;;4.30;3.90;;;;;;;18.25;58.50;100560.59;687752;28;67497;-66
2021/08/19 00:15:22;;;;;;;3.80;3.60;;;;;;;18.25;58.56;100563.34;689312;28;22496;-67
2021/08/19 00:15:43;;;;;;;4.20;3.80;;;;;;;18.25;58.47;100560.59;689443;28;22396;-65
2021/08/19 00:16:06;;;;;;;4.40;4.03;;;;;;;18.24;58.62;100559.75;689334;28;21455;-66
2021/08/19 00:16:27;;;;;;;4.35;4.03;;;;;;;18.24;58.57;100564.41;686878;28;92391;-66
2021/08/19 00:16:49;;;;;;;4.20;3.90;;;;;;;18.24;58.67;100559.75;689457;28;21233;-66
2021/08/19 00:17:10;;;;;;;4.15;3.85;;;;;;;18.25;58.56;100560.59;690077;28;893;-66
2021/08/19 00:17:33;;;;;;;4.10;3.80;;;;;;;18.23;58.77;100563.56;689679;28;23143;-67
2021/08/19 00:17:54;;;;;;;3.80;3.60;;;;;;;18.22;58.94;100561.06;687021;28;67480;-66
2021/08/19 00:18:15;;;;;;;4.55;4.07;;;;;;;18.23;58.79;100568.19;689341;28;21564;-66
2021/08/19 00:18:37;;;;;;;4.38;4.05;;;;;;;18.23;58.82;100568.19;689067;28;23542;-69
2021/08/19 00:18:59;;;;;;;4.07;3.80;;;;;;;18.22;58.78;100561.06;688567;28;44296;-66
2021/08/19 00:19:20;;;;;;;4.10;3.80;;;;;;;18.23;58.83;100558.09;688608;28;46387;-67
2021/08/19 00:19:41;;;;;;;4.10;3.70;;;;;;;18.25;58.81;100568.81;690249;28;1812;-66
2021/08/19 00:20:03;;;;;;;4.45;4.10;;;;;;;18.24;58.67;100575.31;690425;28;1874;-65
2021/08/19 00:20:25;;;;;;;4.18;3.92;;;;;;;18.23;58.79;100569.03;688569;28;44073;-66
2021/08/19 00:20:46;;;;;;;4.30;4.00;;;;;;;18.24;58.92;100562.47;688759;28;45304;-67
2021/08/19 00:21:08;;;;;;;4.18;3.95;;;;;;;18.23;58.81;100571.78;689858;28;4738;-66
2021/08/19 00:21:30;;;;;;;4.78;4.38;;;;;;;18.23;58.92;100560.84;688734;28;46861;-66
2021/08/19 00:21:52;;;;;;;4.80;4.40;;;;;;;18.24;58.74;100556.19;689409;28;21527;-67
2021/08/19 00:22:13;;;;;;;4.28;3.97;;;;;;;18.23;58.87;100563.56;688534;28;45270;-67
2021/08/19 00:22:36;;;;;;;4.28;3.97;;;;;;;18.24;58.68;100564.41;689702;28;22499;-66
2021/08/19 00:22:57;;;;;;;4.05;3.75;;;;;;;18.24;58.72;100561.66;687499;28;69181;-67
2021/08/19 00:23:19;;;;;;;4.35;4.05;;;;;;;18.25;58.73;100566.06;688776;28;46220;-66
2021/08/19 00:23:40;;;;;;;4.18;3.88;;;;;;;18.23;58.85;100566.31;689110;28;45277;-67
2021/08/19 00:24:01;;;;;;;4.05;3.75;;;;;;;18.22;58.64;100561.06;689651;28;21548;-65
2021/08/19 00:24:23;;;;;;;4.15;3.85;;;;;;;18.23;58.77;100560.84;689867;28;14419;-67
2021/08/19 00:24:46;;;;;;;4.07;3.75;;;;;;;18.24;58.90;100567.13;689444;28;21654;-66
2021/08/19 00:25:08;;;;;;;4.35;4.00;;;;;;;18.24;58.82;100565.22;687765;28;70228;-66
2021/08/19 00:25:29;;;;;;;4.25;3.85;;;;;;;18.25;58.89;100563.34;688642;28;44412;-66
2021/08/19 00:25:51;;;;;;;4.13;3.50;;;;;;;18.25;58.88;100557.88;688727;28;47456;-66
2021/08/19 00:26:13;;;;;;;4.47;4.00;;;;;;;18.26;58.72;100564.97;689428;28;23624;-67
2021/08/19 00:26:34;;;;;;;4.63;4.18;;;;;;;18.26;58.75;100562.25;688610;28;46255;-66
2021/08/19 00:26:55;;;;;;;4.72;4.15;;;;;;;18.27;58.72;100561.19;689626;28;22397;-67
2021/08/19 00:27:17;;;;;;;4.22;3.83;;;;;;;18.26;58.59;100562.25;687281;28;45393;-67
2021/08/19 00:27:39;;;;;;;3.92;3.63;;;;;;;18.26;58.60;100559.50;687405;28;24410;-66
2021/08/19 00:28:00;;;;;;;4.10;3.80;;;;;;;18.26;58.74;100559.50;686745;28;46277;-67
2021/08/19 00:28:22;;;;;;;4.10;3.80;;;;;;;18.27;58.69;100567.50;688831;28;928;-68
2021/08/19 00:28:44;;;;;;;4.30;4.00;;;;;;;18.29;58.80;100570.00;689136;28;4073;-66
2021/08/19 00:29:16;;;;;;;4.32;3.92;;;;;;;18.26;58.75;100560.38;690182;28;58752;-66
2021/08/19 00:29:37;;;;;;;4.20;3.78;;;;;;;18.26;58.62;100568.56;690789;28;43716;-66
2021/08/19 00:29:58;;;;;;;4.38;3.97;;;;;;;18.26;58.71;100557.63;692115;28;21786;-64
2021/08/19 00:30:19;;;;;;;4.20;3.90;;;;;;;18.26;58.78;100560.38;692425;28;14302;-66
2021/08/19 00:30:41;;;;;;;4.15;3.85;;;;;;;18.26;58.63;100563.09;692798;28;8265;-66
2021/08/19 00:31:02;;;;;;;4.10;3.80;;;;;;;18.23;58.64;100559.97;691696;28;47528;-66
2021/08/19 00:31:25;;;;;;;4.40;4.00;;;;;;;18.27;58.74;100559.28;693412;28;1437;-66
2021/08/19 00:31:46;;;;;;;4.32;3.92;;;;;;;18.27;58.55;100555.72;692377;28;13361;-63
2021/08/19 00:32:09;;;;;;;4.15;3.85;;;;;;;18.27;58.52;100559.28;692341;28;21412;-66
2021/08/19 00:32:30;;;;;;;4.43;4.13;;;;;;;18.27;58.64;100564.75;692383;28;13274;-65
2021/08/19 00:32:51;;;;;;;4.53;4.13;;;;;;;18.28;58.69;100558.22;691574;28;22035;-67
2021/08/19 00:33:12;;;;;;;4.47;4.07;;;;;;;18.28;58.65;100558.22;690798;28;24331;-65
2021/08/19 00:33:34;;;;;;;4.40;4.00;;;;;;;18.30;58.77;100558.00;692125;28;22751;-67
2021/08/19 00:33:55;;;;;;;4.43;4.13;;;;;;;18.29;58.76;100562.66;690568;28;36512;-66
2021/08/19 00:34:16;;;;;;;4.60;4.18;;;;;;;18.29;58.70;100559.91;691644;28;3652;-65
2021/08/19 00:34:37;;;;;;;4.30;3.95;;;;;;;18.30;58.80;100572.50;691185;28;21529;-67
2021/08/19 00:34:58;;;;;;;4.40;4.00;;;;;;;18.29;58.91;100557.19;692343;28;23516;-66
2021/08/19 00:35:21;;;;;;;4.55;4.20;;;;;;;18.28;58.80;100565.59;692352;28;23665;-66
2021/08/19 00:35:42;;;;;;;3.95;3.72;;;;;;;18.27;58.93;100564.75;691697;28;44432;-66
2021/08/19 00:36:03;;;;;;;3.65;3.45;;;;;;;18.28;58.86;100566.44;691591;28;22423;-66
2021/08/19 00:36:24;;;;;;;3.92;3.72;;;;;;;18.28;58.90;100557.41;690062;28;45250;-66
2021/08/19 00:36:46;;;;;;;4.50;4.10;;;;;;;18.29;58.80;100561.78;692699;28;22140;-67
2021/08/19 00:37:08;;;;;;;4.60;4.13;;;;;;;18.28;59.05;100566.44;690511;28;44399;-67
2021/08/19 00:37:31;;;;;;;4.47;4.18;;;;;;;18.28;59.04;100552.75;690633;28;46264;-67
2021/08/19 00:37:52;;;;;;;4.47;4.18;;;;;;;18.29;58.98;100559.06;689837;28;69426;-66
2021/08/19 00:38:14;;;;;;;4.40;4.00;;;;;;;18.28;59.05;100563.69;692814;28;22380;-67
2021/08/19 00:38:35;;;;;;;4.28;3.97;;;;;;;18.27;58.92;100559.28;691775;28;46561;-68
2021/08/19 00:38:58;;;;;;;4.05;3.85;;;;;;;18.28;58.91;100560.13;692796;28;23450;-67
2021/08/19 00:39:19;;;;;;;4.57;4.20;;;;;;;18.27;58.93;100556.56;690645;28;45423;-67
2021/08/19 00:39:42;;;;;;;4.93;4.25;;;;;;;18.27;59.11;100561.19;691071;28;46307;-66
2021/08/19 00:40:06;;;;;;;4.38;3.97;;;;;;;18.27;58.98;100563.94;690974;28;69464;-67
2021/08/19 00:40:27;;;;;;;5.78;4.15;;;;;;;18.27;58.88;100561.19;689950;28;70688;-66
2021/08/19 00:40:48;;;;;;;5.22;4.10;;;;;;;18.27;58.88;100567.50;690914;28;46348;-67
2021/08/19 00:41:11;;;;;;;4.13;3.72;;;;;;;18.26;59.04;100568.56;692304;28;21555;-67
2021/08/19 00:41:32;;;;;;;4.20;3.90;;;;;;;18.28;59.17;100557.41;691905;28;46297;-67
2021/08/19 00:41:54;;;;;;;4.28;3.90;;;;;;;18.26;59.28;100565.84;692959;28;21517;-68
2021/08/19 00:42:15;;;;;;;4.70;4.30;;;;;;;18.27;59.21;100569.41;691583;28;46355;-67
2021/08/19 00:42:37;;;;;;;5.03;4.53;;;;;;;18.27;59.25;100563.94;692684;28;22398;-66
2021/08/19 00:42:58;;;;;;;4.90;4.40;;;;;;;18.26;59.20;100563.09;690641;28;44390;-66
2021/08/19 00:43:21;;;;;;;4.50;4.10;;;;;;;18.25;59.16;100558.69;690666;28;46471;-66
2021/08/19 00:43:43;;;;;;;4.50;4.10;;;;;;;18.26;59.22;100562.25;689808;28;67679;-66
2021/08/19 00:44:04;;;;;;;4.70;4.15;;;;;;;18.26;59.47;100562.25;691782;28;45289;-66
2021/08/19 00:44:25;;;;;;;4.88;4.50;;;;;;;18.25;59.59;100557.88;692467;28;22402;-67
2021/08/19 00:44:47;;;;;;;5.00;4.50;;;;;;;18.24;59.55;100561.66;692712;28;22393;-65
2021/08/19 00:45:09;;;;;;;4.80;4.50;;;;;;;18.26;59.39;100564.97;692161;28;40680;-67
2021/08/19 00:45:31;;;;;;;4.93;4.53;;;;;;;18.24;59.52;100565.22;692557;28;44530;-66
2021/08/19 00:45:52;;;;;;;4.85;4.45;;;;;;;18.24;59.47;100564.41;691871;28;45183;-64
2021/08/19 00:46:27;;;;;;;5.60;4.40;;;;;;;18.23;59.47;100562.72;692015;28;21555;-66
2021/08/19 00:46:48;;;;;;;4.43;4.13;;;;;;;18.22;59.54;100553.69;688890;28;137289;-67
2021/08/19 00:47:09;;;;;;;4.85;4.47;;;;;;;18.23;59.40;100566.31;692777;28;24186;-66
2021/08/19 00:47:30;;;;;;;5.10;4.60;;;;;;;18.24;59.38;100557.03;692406;28;21515;-67
2021/08/19 00:47:52;;;;;;;5.18;4.68;;;;;;;18.24;59.58;100567.13;691424;28;22490;-67
2021/08/19 00:48:13;;;;;;;5.20;4.70;;;;;;;18.24;59.64;100567.13;690309;28;44399;-66
2021/08/19 00:48:35;;;;;;;5.10;4.70;;;;;;;18.24;59.41;100558.94;692101;28;23690;-66
2021/08/19 00:49:00;;;;;;;5.03;4.63;;;;;;;18.24;59.54;100564.41;688255;28;66249;-66
2021/08/19 00:49:22;;;;;;;5.10;4.70;;;;;;;18.23;59.50;100560.84;687640;28;92021;-66
2021/08/19 00:49:44;;;;;;;5.03;4.63;;;;;;;18.22;59.46;100552.88;689037;28;31239;-66
2021/08/19 00:50:07;;;;;;;4.82;4.43;;;;;;;18.24;59.40;100557.03;688135;28;69470;-67
2021/08/19 00:50:29;;;;;;;5.10;4.60;;;;;;;18.24;59.58;100559.75;689614;28;20804;-67
2021/08/19 00:50:50;;;;;;;5.20;4.70;;;;;;;18.24;59.48;100559.75;688181;28;69558;-67
2021/08/19 00:51:11;;;;;;;4.93;4.50;;;;;;;18.25;59.44;100560.59;688697;28;24370;-67
2021/08/19 00:51:38;;;;;;;5.07;4.65;;;;;;;18.24;59.47;100558.94;690115;28;5724;-65
2021/08/19 00:52:00;;;;;;;5.30;4.80;;;;;;;18.24;59.57;100554.28;685926;28;136470;-66
2021/08/19 00:52:21;;;;;;;4.93;4.60;;;;;;;18.25;59.56;100561.44;689276;28;46352;-65
2021/08/19 00:52:42;;;;;;;4.95;4.57;;;;;;;18.23;59.33;100558.09;690059;28;21548;-67
2021/08/19 00:53:03;;;;;;;5.25;4.80;;;;;;;18.25;59.47;100560.59;688551;28;22413;-66
2021/08/19 00:53:25;;;;;;;5.50;5.05;;;;;;;18.25;59.56;100558.69;688190;28;46457;-65
2021/08/19 00:53:46;;;;;;;4.80;4.50;;;;;;;18.25;59.59;100566.06;687934;28;45248;-64
2021/08/19 00:54:09;;;;;;;5.15;4.75;;;;;;;18.24;59.55;100554.28;688714;28;23458;-67
2021/08/19 00:54:30;;;;;;;5.20;4.78;;;;;;;18.25;59.64;100557.88;687862;28;43307;-66
2021/08/19 00:54:52;;;;;;;4.90;4.50;;;;;;;18.25;59.37;100550.50;689766;28;23487;-67
2021/08/19 00:55:17;;;;;;;5.07;4.68;;;;;;;18.25;59.45;100555.97;689127;28;44407;-67
2021/08/19 00:55:38;;;;;;;4.90;4.50;;;;;;;18.25;59.50;100550.50;686289;28;113317;-66
2021/08/19 00:55:59;;;;;;;4.80;4.30;;;;;;;18.26;59.34;100554.06;689330;28;22395;-66
2021/08/19 00:56:20;;;;;;;4.85;4.45;;;;;;;18.26;59.37;100563.09;690359;28;1267;-66
2021/08/19 00:56:42;;;;;;;5.00;4.60;;;;;;;18.27;59.39;100558.47;689875;28;21329;-68
2021/08/19 00:57:05;;;;;;;5.68;5.13;;;;;;;18.27;59.51;100556.56;689106;28;46303;-64
2021/08/19 00:57:26;;;;;;;5.15;4.65;;;;;;;18.27;59.37;100551.09;688192;28;67381;-64
2021/08/19 00:57:47;;;;;;;5.20;4.80;;;;;;;18.26;59.64;100557.63;689138;28;22413;-66
2021/08/19 00:58:09;;;;;;;5.68;5.18;;;;;;;18.27;59.73;100550.25;688738;28;22423;-66
2021/08/19 00:58:30;;;;;;;5.30;4.80;;;;;;;18.25;59.36;100564.16;689487;28;46409;-67
2021/08/19 00:58:51;;;;;;;5.15;4.75;;;;;;;18.27;59.57;100561.19;689472;28;21494;-67
2021/08/19 00:59:14;;;;;;;5.10;4.70;;;;;;;18.25;59.50;100553.22;690071;28;17280;-67
2021/08/19 00:59:37;;;;;;;5.45;4.95;;;;;;;18.27;59.58;100563.94;687460;28;69075;-66
2021/08/19 00:59:59;;;;;;;5.40;4.95;;;;;;;18.26;59.48;100556.78;687984;28;69813;-66
2021/08/19 01:00:20;;;;;;;5.82;5.32;;;;;;;18.26;59.58;100556.78;689858;28;20522;-67
2021/08/19 01:00:42;;;;;;;6.18;4.85;;;;;;;18.25;59.53;100558.69;689183;28;46390;-66
2021/08/19 01:01:04;;;;;;;5.30;4.80;;;;;;;18.26;59.66;100559.50;688660;28;40238;-66
2021/08/19 01:01:26;;;;;;;5.07;4.68;;;;;;;18.24;59.68;100559.75;689641;28;34645;-64
2021/08/19 01:01:47;;;;;;;5.10;4.60;;;;;;;18.24;59.65;100559.75;690051;28;22391;-65
2021/08/19 01:02:09;;;;;;;5.18;4.78;;;;;;;18.25;59.55;100553.22;690451;28;961;-67
2021/08/19 01:02:32;;;;;;;4.97;4.60;;;;;;;18.23;59.54;100552.63;689435;28;45204;-66
2021/08/19 01:02:54;;;;;;;4.93;4.53;;;;;;;18.25;59.50;100560.59;689099;28;46648;-66
2021/08/19 01:03:15;;;;;;;5.22;4.72;;;;;;;18.25;59.35;100555.97;688864;28;45428;-66
2021/08/19 01:03:38;;;;;;;5.35;4.95;;;;;;;18.26;59.54;100559.50;690144;28;23429;-66
2021/08/19 01:04:00;;;;;;;5.22;4.82;;;;;;;18.26;59.64;100559.50;689078;28;46671;-66
2021/08/19 01:04:21;;;;;;;4.90;4.50;;;;;;;18.25;59.77;100555.97;689422;28;46060;-65
2021/08/19 01:04:42;;;;;;;4.95;4.55;;;;;;;18.25;59.81;100558.69;689669;28;21540;-67
2021/08/19 01:05:05;;;;;;;5.15;4.75;;;;;;;18.23;59.58;100557.25;689107;28;46724;-66
2021/08/19 01:05:28;;;;;;;5.50;5.00;;;;;;;18.25;59.67;100557.88;688974;28;45345;-65
2021/08/19 01:05:49;;;;;;;4.85;4.55;;;;;;;18.25;59.59;100558.69;688290;28;89439;-67
2021/08/19 01:06:10;;;;;;;5.40;5.00;;;;;;;18.25;59.61;100557.88;689607;28;23466;-67
2021/08/19 01:06:32;;;;;;;5.28;4.85;;;;;;;18.24;59.56;100559.75;689576;28;23417;-67
2021/08/19 01:06:54;;;;;;;5.25;4.85;;;;;;;18.24;59.67;100565.22;688096;28;45290;-67
2021/08/19 01:07:16;;;;;;;5.35;4.82;;;;;;;18.25;59.73;100553.22;687681;28;45233;-66
2021/08/19 01:07:37;;;;;;;5.50;4.90;;;;;;;18.24;59.57;100564.41;687549;28;44335;-66
2021/08/19 01:07:59;;;;;;;5.32;4.82;;;;;;;18.25;59.76;100557.88;689968;28;2454;-66
2021/08/19 01:08:21;;;;;;;5.20;4.80;;;;;;;18.25;59.78;100552.41;689814;28;22433;-66
2021/08/19 01:08:42;;;;;;;5.68;5.00;;;;;;;18.24;59.83;100551.56;688726;28;44040;-67
2021/08/19 01:09:04;;;;;;;5.22;4.72;;;;;;;18.24;59.65;100554.28;689666;28;4216;-67
2021/08/19 01:09:26;;;;;;;5.43;4.97;;;;;;;18.25;59.58;100560.59;689406;28;29138;-66
2021/08/19 01:09:49;;;;;;;5.55;5.13;;;;;;;18.25;59.65;100560.59;689620;28;22425;-67
2021/08/19 01:10:10;;;;;;;5.95;5.45;;;;;;;18.25;59.66;100549.66;688108;28;69097;-65
2021/08/19 01:10:33;;;;;;;5.70;5.20;;;;;;;18.26;59.66;100554.91;692198;28;23469;-66
2021/08/19 01:10:54;;;;;;;5.78;5.28;;;;;;;18.25;59.77;100555.13;690857;28;68410;-66
2021/08/19 01:11:15;;;;;;;6.40;5.57;;;;;;;18.25;59.74;100561.44;691679;28;22420;-65
2021/08/19 01:11:40;;;;;;;6.05;5.47;;;;;;;18.26;59.91;100559.50;692414;28;23466;-66
2021/08/19 01:12:03;;;;;;;5.70;5.20;;;;;;;18.26;59.85;100554.06;689058;28;111302;-65
2021/08/19 01:12:24;;;;;;;5.90;5.38;;;;;;;18.27;59.84;100555.72;689136;28;67549;-67
2021/08/19 01:12:46;;;;;;;5.40;4.90;;;;;;;18.26;59.86;100554.06;689099;28;46166;-64
2021/08/19 01:13:08;;;;;;;5.57;4.90;;;;;;;18.25;59.77;100555.13;688304;28;21531;-65
2021/08/19 01:13:29;;;;;;;6.10;5.50;;;;;;;18.26;59.86;100552.16;688968;28;46430;-66
2021/08/19 01:13:51;;;;;;;5.43;5.03;;;;;;;18.26;59.90;100559.50;690044;28;24301;-67
2021/08/19 01:14:13;;;;;;;5.47;5.07;;;;;;;18.27;59.73;100558.47;690070;28;19770;-66
2021/08/19 01:14:35;;;;;;;6.10;5.50;;;;;;;18.27;59.74;100550.25;688146;28;69322;-66
2021/08/19 01:14:56;;;;;;;6.57;5.38;;;;;;;18.27;59.80;100542.06;687883;28;46525;-67
2021/08/19 01:15:17;;;;;;;5.60;5.10;;;;;;;18.27;59.75;100553.81;688545;28;22196;-66
2021/08/19 01:15:40;;;;;;;5.85;5.35;;;;;;;18.28;59.80;100551.94;688634;28;21729;-66
2021/08/19 01:16:02;;;;;;;5.80;5.20;;;;;;;18.28;59.73;100551.94;688040;28;45145;-67
2021/08/19 01:16:25;;;;;;;7.65;5.35;;;;;;;18.29;59.70;100550.84;688238;28;38123;-67
2021/08/19 01:16:48;;;;;;;5.80;5.25;;;;;;;18.28;59.83;100551.94;689326;28;926;-66
2021/08/19 01:17:13;;;;;;;5.35;4.95;;;;;;;18.27;59.71;100553.81;689953;28;15018;-67
2021/08/19 01:17:34;;;;;;;5.85;5.35;;;;;;;18.27;59.79;100555.72;686996;28;92998;-67
2021/08/19 01:17:57;;;;;;;5.90;5.40;;;;;;;18.27;59.87;100553.81;688892;28;32287;-67
2021/08/19 01:18:20;;;;;;;5.93;5.43;;;;;;;18.27;59.76;100558.47;690708;28;912;-67
2021/08/19 01:18:42;;;;;;;6.38;5.78;;;;;;;18.26;60.13;100563.09;688054;28;43815;-67
2021/08/19 01:19:04;;;;;;;6.60;5.80;;;;;;;18.25;59.99;100555.97;688370;28;34405;-67
2021/08/19 01:19:33;;;;;;;6.93;5.63;;;;;;;18.25;60.08;100557.88;688259;28;61095;-67
2021/08/19 01:19:54;;;;;;;6.13;5.53;;;;;;;18.23;60.09;100549.91;688178;28;44392;-67
2021/08/19 01:20:15;;;;;;;5.88;5.35;;;;;;;18.24;60.04;100551.56;689995;28;22482;-67
2021/08/19 01:20:38;;;;;;;6.05;5.55;;;;;;;18.24;60.00;100554.28;690573;28;1073;-67
2021/08/19 01:21:00;;;;;;;6.53;5.93;;;;;;;18.24;60.18;100558.94;688560;28;46371;-67
2021/08/19 01:21:21;;;;;;;6.37;5.87;;;;;;;18.24;60.17;100558.94;688061;28;20840;-65
2021/08/19 01:21:43;;;;;;;6.47;5.83;;;;;;;18.24;60.16;100550.72;687595;28;38799;-67
2021/08/19 01:22:04;;;;;;;6.25;5.43;;;;;;;18.23;60.12;100558.09;688458;28;45049;-67
2021/08/19 01:22:26;;;;;;;5.80;5.30;;;;;;;18.22;60.17;100556.44;688806;28;46455;-65
2021/08/19 01:22:47;;;;;;;5.93;5.43;;;;;;;18.22;60.32;100548.22;685995;28;38513;-65
2021/08/19 01:23:09;;;;;;;6.03;5.50;;;;;;;18.23;60.26;100554.50;687956;28;1523;-67
2021/08/19 01:23:31;;;;;;;5.97;5.47;;;;;;;18.23;60.11;100557.25;689093;28;1153;-67
2021/08/19 01:23:53;;;;;;;6.35;5.78;;;;;;;18.22;60.25;100556.44;689595;28;14614;-67
2021/08/19 01:24:14;;;;;;;6.20;5.60;;;;;;;18.22;60.28;100556.44;687740;28;45276;-67
2021/08/19 01:24:35;;;;;;;6.40;5.80;;;;;;;18.22;60.04;100556.44;689364;28;23468;-67
2021/08/19 01:25:04;;;;;;;6.18;5.68;;;;;;;18.24;59.86;100554.28;690871;28;61504;-67
2021/08/19 01:25:28;;;;;;;7.53;5.65;;;;;;;18.25;60.03;100557.88;690436;28;62068;-67
2021/08/19 01:25:52;;;;;;;6.40;5.80;;;;;;;18.24;59.94;100557.03;692400;28;1445;-68
2021/08/19 01:26:15;;;;;;;6.22;5.63;;;;;;;18.25;60.03;100555.97;688588;28;49315;-67
2021/08/19 01:26:37;;;;;;;6.18;5.57;;;;;;;18.24;60.12;100546.09;687342;28;67306;-67
2021/08/19 01:26:58;;;;;;;7.93;5.88;;;;;;;18.24;59.96;100553.47;687674;28;44368;-67
2021/08/19 01:27:21;;;;;;;7.82;5.72;;;;;;;18.25;59.74;100550.50;688502;28;23428;-67
2021/08/19 01:27:44;;;;;;;6.50;5.40;;;;;;;18.25;60.07;100552.41;690209;28;922;-68
2021/08/19 01:28:05;;;;;;;6.13;5.57;;;;;;;18.24;59.84;100551.56;686779;28;67582;-65
2021/08/19 01:28:27;;;;;;;6.93;6.10;;;;;;;18.24;60.02;100550.72;688028;28;36045;-66
2021/08/19 01:28:49;;;;;;;6.60;5.97;;;;;;;18.24;60.10;100554.28;688956;28;45259;-66
2021/08/19 01:29:11;;;;;;;6.30;5.70;;;;;;;18.20;60.32;100542.16;692112;28;45138;-68
2021/08/19 01:29:32;;;;;;;6.35;5.85;;;;;;;18.25;60.23;100557.88;691774;28;45234;-65
2021/08/19 01:29:53;;;;;;;6.20;5.70;;;;;;;18.24;60.03;100558.94;691862;28;20430;-67
2021/08/19 01:30:14;;;;;;;6.35;5.75;;;;;;;18.24;60.20;100557.03;691932;28;24350;-66
2021/08/19 01:30:36;;;;;;;6.30;5.70;;;;;;;18.24;59.94;100554.28;694713;28;31527;-68
2021/08/19 01:30:57;;;;;;;6.50;5.90;;;;;;;18.23;60.16;100555.38;694665;28;45426;-67
2021/08/19 01:31:20;;;;;;;6.85;6.15;;;;;;;18.24;60.17;100561.66;695241;28;21558;-67
2021/08/19 01:31:41;;;;;;;6.53;5.90;;;;;;;18.24;60.25;100557.03;692832;28;69590;-68
2021/08/19 01:32:05;;;;;;;6.95;6.20;;;;;;;18.21;60.17;100554.75;694829;28;24541;-66
2021/08/19 01:32:27;;;;;;;6.38;5.78;;;;;;;18.23;60.28;100551.78;689754;28;115237;-66
2021/08/19 01:32:49;;;;;;;6.65;6.05;;;;;;;18.21;60.08;100557.47;691107;28;67497;-67
2021/08/19 01:33:10;;;;;;;6.60;6.00;;;;;;;18.23;60.15;100559.97;692204;28;23450;-66
2021/08/19 01:33:32;;;;;;;6.53;5.88;;;;;;;18.22;60.46;100559.16;691466;28;22416;-68
2021/08/19 01:33:54;;;;;;;6.63;6.03;;;;;;;18.18;60.30;100553.34;691645;28;47576;-67
2021/08/19 01:34:15;;;;;;;6.80;6.10;;;;;;;18.18;60.36;100558.81;691620;28;37049;-67
2021/08/19 01:34:36;;;;;;;6.93;6.05;;;;;;;18.21;60.40;100557.47;692561;28;22200;-66
2021/08/19 01:34:58;;;;;;;7.70;6.13;;;;;;;18.20;60.34;100564.03;690637;28;44158;-67
2021/08/19 01:35:20;;;;;;;6.55;5.95;;;;;;;18.21;60.62;100554.75;691245;28;46344;-66
2021/08/19 01:35:41;;;;;;;6.45;5.85;;;;;;;18.19;60.18;100549.50;688843;28;42757;-65
2021/08/19 01:36:03;;;;;;;6.32;5.82;;;;;;;18.18;60.31;100550.59;692300;28;22373;-66
2021/08/19 01:36:25;;;;;;;6.25;5.75;;;;;;;18.21;60.30;100553.94;692372;28;22393;-65
2021/08/19 01:36:46;;;;;;;6.10;5.55;;;;;;;18.21;60.47;100553.94;690991;28;69639;-67
2021/08/19 01:37:08;;;;;;;6.07;5.57;;;;;;;18.21;60.33;100559.38;691520;28;45281;-67
2021/08/19 01:37:29;;;;;;;5.88;5.45;;;;;;;18.21;60.53;100554.75;691330;28;45221;-67
2021/08/19 01:37:51;;;;;;;6.18;5.68;;;;;;;18.21;60.57;100554.75;690878;28;22617;-65
2021/08/19 01:38:12;;;;;;;6.60;5.97;;;;;;;18.22;60.46;100577.47;691083;28;46401;-67
2021/08/19 01:38:34;;;;;;;6.38;5.78;;;;;;;18.22;60.51;100555.59;692167;28;11219;-66
2021/08/19 01:38:56;;;;;;;6.33;5.80;;;;;;;18.22;60.37;100556.44;690192;28;64170;-68
2021/08/19 01:39:17;;;;;;;6.07;5.47;;;;;;;18.22;60.44;100559.16;691632;28;40060;-67
2021/08/19 01:39:39;;;;;;;6.30;5.70;;;;;;;18.22;60.31;100558.34;692117;28;22408;-67
2021/08/19 01:40:00;;;;;;;5.95;5.45;;;;;;;18.22;60.20;100556.44;691278;28;46320;-67
2021/08/19 01:40:21;;;;;;;5.68;5.28;;;;;;;18.22;60.35;100561.88;692443;28;23412;-67
2021/08/19 01:40:42;;;;;;;6.35;5.63;;;;;;;18.23;60.34;100554.50;692558;28;22390;-67
2021/08/19 01:41:03;;;;;;;6.38;5.78;;;;;;;18.23;60.26;100554.50;691260;28;22605;-66
2021/08/19 01:41:25;;;;;;;6.25;5.75;;;;;;;18.22;60.33;100559.16;692822;28;22372;-66
2021/08/19 01:41:46;;;;;;;6.32;5.72;;;;;;;18.23;60.25;100555.38;690962;28;45287;-65
2021/08/19 01:42:08;;;;;;;6.22;5.70;;;;;;;18.24;60.27;100550.72;691019;28;21549;-67
2021/08/19 01:42:30;;;;;;;6.43;5.82;;;;;;;18.24;60.39;100554.28;692330;28;22409;-67
2021/08/19 01:42:52;;;;;;;6.53;5.93;;;;;;;18.24;60.23;100551.56;690921;28;69382;-67
2021/08/19 01:43:13;;;;;;;6.22;5.50;;;;;;;18.23;60.21;100547.16;692292;28;33988;-67